createdAt,value
2022-11-27T00:02:23.784Z,38.06
2022-11-27T00:07:30.467Z,37.68
2022-11-27T00:12:36.535Z,36.29
2022-11-27T00:17:41.447Z,35.82
2022-11-27T00:22:48.379Z,35.24
2022-11-27T00:27:55.021Z,35.63
2022-11-27T00:33:00.168Z,36.15
2022-11-27T00:38:10.946Z,36.01
2022-11-27T00:43:17.397Z,36.64
2022-11-27T00:48:22.757Z,36.37
2022-11-27T00:53:27.666Z,35.92
2022-11-27T00:58:32.966Z,35.65
2022-11-27T01:03:39.157Z,35.53
2022-11-27T01:08:44.830Z,36.49
2022-11-27T01:13:50.706Z,37.02
2022-11-27T01:19:00.036Z,36.55
2022-11-27T01:24:06.473Z,36.97
2022-11-27T01:29:11.901Z,37.07
2022-11-27T01:34:20.097Z,36.62
2022-11-27T01:39:26.432Z,36.49
2022-11-27T01:44:33.160Z,36.20
2022-11-27T01:49:50.927Z,36.45
2022-11-27T01:55:11.438Z,36.21
2022-11-27T02:00:18.775Z,35.57
2022-11-27T02:05:27.660Z,35.58
2022-11-27T02:10:53.570Z,36.62
2022-11-27T02:16:01.600Z,33.99
2022-11-27T02:21:28.980Z,33.59
2022-11-27T02:26:53.443Z,31.44
2022-11-27T02:32:37.996Z,35.70
2022-11-27T02:37:52.233Z,33.99
2022-11-27T02:43:03.676Z,34.86
2022-11-27T02:48:12.589Z,34.87
2022-11-27T02:53:31.564Z,35.55
2022-11-27T02:58:39.957Z,35.51
2022-11-27T03:03:50.153Z,33.25
2022-11-27T03:09:13.018Z,35.44
2022-11-27T03:14:21.767Z,33.74
2022-11-27T03:19:59.206Z,33.02
2022-11-27T03:25:05.590Z,33.95
2022-11-27T03:30:16.489Z,35.24
2022-11-27T03:35:26.656Z,34.77
2022-11-27T03:40:47.503Z,34.85
2022-11-27T03:46:03.630Z,33.46
2022-11-27T03:51:42.839Z,34.95
2022-11-27T03:57:20.036Z,35.07
2022-11-27T04:02:47.969Z,31.62
2022-11-27T04:07:54.004Z,33.49
2022-11-27T04:12:59.702Z,34.58
2022-11-27T04:18:05.691Z,33.51
2022-11-27T04:23:12.117Z,33.91
2022-11-27T04:28:19.609Z,32.62
2022-11-27T04:33:27.190Z,33.47
2022-11-27T04:38:33.618Z,31.47
2022-11-27T04:43:40.187Z,31.92
2022-11-27T04:48:45.508Z,33.18
2022-11-27T04:53:50.912Z,33.39
2022-11-27T04:58:56.509Z,34.34
2022-11-27T05:04:02.083Z,33.74
2022-11-27T05:09:07.477Z,33.61
2022-11-27T05:14:19.645Z,33.74
2022-11-27T05:19:27.380Z,34.30
2022-11-27T05:24:38.070Z,34.53
2022-11-27T05:29:46.602Z,31.09
2022-11-27T05:34:54.847Z,34.44
2022-11-27T05:40:02.567Z,34.59
2022-11-27T05:45:14.085Z,33.91
2022-11-27T05:50:19.519Z,33.69
2022-11-27T05:55:24.873Z,34.14
2022-11-27T06:00:30.192Z,33.77
2022-11-27T06:05:35.523Z,34.32
2022-11-27T06:10:42.065Z,33.99
2022-11-27T06:15:47.575Z,34.63
2022-11-27T06:20:53.200Z,34.53
2022-11-27T06:25:58.651Z,34.68
2022-11-27T06:31:17.287Z,34.52
2022-11-27T06:36:27.324Z,34.55
2022-11-27T06:41:33.463Z,34.53
2022-11-27T06:46:39.965Z,34.39
2022-11-27T06:51:45.855Z,34.54
2022-11-27T06:56:52.604Z,34.20
2022-11-27T07:01:59.249Z,34.74
2022-11-27T07:07:08.801Z,34.20
2022-11-27T07:12:15.598Z,34.48
2022-11-27T07:17:21.018Z,33.21
2022-11-27T07:22:26.376Z,32.81
2022-11-27T07:27:32.666Z,31.17
2022-11-27T07:32:38.704Z,31.36
2022-11-27T07:37:44.602Z,32.92
2022-11-27T07:42:51.150Z,33.61
2022-11-27T07:47:57.553Z,33.30
2022-11-27T07:53:04.213Z,33.99
2022-11-27T07:58:12.136Z,31.89
2022-11-27T08:03:18.287Z,32.35
2022-11-27T08:08:31.914Z,32.62
2022-11-27T08:13:38.516Z,32.29
2022-11-27T08:18:44.179Z,33.52
2022-11-27T08:23:50.584Z,33.74
2022-11-27T08:28:58.955Z,33.48
2022-11-27T08:34:05.746Z,34.11
2022-11-27T08:39:12.428Z,34.31
2022-11-27T08:44:18.538Z,34.16
2022-11-27T08:49:24.972Z,34.74
2022-11-27T08:54:32.295Z,34.35
2022-11-27T08:59:38.828Z,34.84
2022-11-27T09:04:44.347Z,35.12
2022-11-27T09:09:50.160Z,34.32
2022-11-27T09:14:55.620Z,34.20
2022-11-27T09:20:00.916Z,34.73
2022-11-27T09:25:06.589Z,34.28
2022-11-27T09:30:12.661Z,34.17
2022-11-27T09:35:18.329Z,34.08
2022-11-27T09:40:23.728Z,34.35
2022-11-27T09:45:29.859Z,34.29
2022-11-27T09:50:39.023Z,33.50
2022-11-27T09:55:45.386Z,33.63
2022-11-27T10:00:50.787Z,33.65
2022-11-27T10:06:29.370Z,34.39
2022-11-27T10:11:57.521Z,34.77
2022-11-27T10:17:47.008Z,34.62
2022-11-27T10:23:34.544Z,34.20
2022-11-27T10:28:48.924Z,34.08
2022-11-27T10:34:02.804Z,34.58
2022-11-27T10:39:15.954Z,34.53
2022-11-27T10:44:39.701Z,35.26
2022-11-27T10:49:46.252Z,34.30
2022-11-27T10:55:00.658Z,34.55
2022-11-27T11:00:22.016Z,34.48
2022-11-27T11:05:41.393Z,34.27
2022-11-27T11:11:01.429Z,35.01
2022-11-27T11:16:17.469Z,35.26
2022-11-27T11:21:32.264Z,34.75
2022-11-27T11:26:46.565Z,34.88
2022-11-27T11:31:52.315Z,34.87
2022-11-27T11:37:04.174Z,35.06
2022-11-27T11:42:24.485Z,34.91
2022-11-27T11:47:31.493Z,34.93
2022-11-27T11:53:01.039Z,35.45
2022-11-27T11:58:33.753Z,35.24
2022-11-27T12:03:59.225Z,35.45
2022-11-27T12:09:32.759Z,36.01
2022-11-27T12:14:41.335Z,36.39
2022-11-27T12:20:02.149Z,36.37
2022-11-27T12:25:41.428Z,36.78
2022-11-27T12:30:56.633Z,37.10
2022-11-27T12:36:27.600Z,37.39
2022-11-27T12:41:56.663Z,37.75
2022-11-27T12:47:27.802Z,37.44
2022-11-27T12:53:02.760Z,37.25
2022-11-27T12:58:39.506Z,37.81
2022-11-27T13:04:08.285Z,37.97
2022-11-27T13:09:23.345Z,38.02
2022-11-27T13:14:32.327Z,37.65
2022-11-27T13:19:37.770Z,37.57
2022-11-27T13:24:46.497Z,37.34
2022-11-27T13:29:59.920Z,37.58
2022-11-27T13:35:31.297Z,37.23
2022-11-27T13:40:46.552Z,37.63
2022-11-27T13:45:53.346Z,37.64
2022-11-27T13:51:00.362Z,38.04
2022-11-27T13:56:12.917Z,38.26
2022-11-27T14:01:27.002Z,38.23
2022-11-27T14:06:35.049Z,37.90
2022-11-27T14:11:44.656Z,37.71
2022-11-27T14:17:10.648Z,37.85
2022-11-27T14:23:14.425Z,37.69
2022-11-27T14:28:16.732Z,38.13
2022-11-27T14:33:29.725Z,38.60
2022-11-27T14:38:37.075Z,37.91
2022-11-27T14:43:44.931Z,37.80
2022-11-27T14:49:01.650Z,38.12
2022-11-27T14:54:44.245Z,38.60
2022-11-27T14:59:50.875Z,38.81
2022-11-27T15:05:08.491Z,38.47
2022-11-27T15:10:39.905Z,38.33
2022-11-27T15:15:58.357Z,38.59
2022-11-27T15:21:11.257Z,39.32
2022-11-27T15:26:30.579Z,39.19
2022-11-27T15:31:38.726Z,39.48
2022-11-27T15:36:55.655Z,39.59
2022-11-27T15:42:03.662Z,39.83
2022-11-27T15:47:24.041Z,39.60
2022-11-27T15:52:29.736Z,40.17
2022-11-27T15:57:35.219Z,39.41
2022-11-27T16:02:40.902Z,39.05
2022-11-27T16:07:47.536Z,39.41
2022-11-27T16:12:56.566Z,39.51
2022-11-27T16:18:05.411Z,39.37
2022-11-27T16:23:19.644Z,39.87
2022-11-27T16:28:24.966Z,39.53
2022-11-27T16:33:35.011Z,38.56
2022-11-27T16:38:40.848Z,39.17
2022-11-27T16:43:51.636Z,39.10
2022-11-27T16:49:00.440Z,39.97
2022-11-27T16:54:08.422Z,40.60
2022-11-27T16:59:16.815Z,40.79
2022-11-27T17:04:23.575Z,41.21
2022-11-27T17:09:30.920Z,40.88
2022-11-27T17:14:38.415Z,40.74
2022-11-27T17:19:45.835Z,40.18
2022-11-27T17:24:53.238Z,39.93
2022-11-27T17:29:59.599Z,39.90
2022-11-27T17:35:05.853Z,40.84
2022-11-27T17:40:11.875Z,39.89
2022-11-27T17:45:17.450Z,40.33
2022-11-27T17:50:22.822Z,40.40
2022-11-27T17:55:28.729Z,40.83
2022-11-27T18:00:37.234Z,41.07
2022-11-27T18:05:42.910Z,40.88
2022-11-27T18:10:50.633Z,40.28
2022-11-27T18:15:56.522Z,39.91
2022-11-27T18:21:08.478Z,40.36
2022-11-27T18:26:17.268Z,40.22
2022-11-27T18:31:22.905Z,40.51
2022-11-27T18:36:28.398Z,40.90
2022-11-27T18:41:33.667Z,40.45
2022-11-27T18:46:39.942Z,40.76
2022-11-27T18:51:46.378Z,40.95
2022-11-27T18:56:51.811Z,40.85
2022-11-27T19:01:57.273Z,40.44
2022-11-27T19:07:02.815Z,40.28
2022-11-27T19:12:08.745Z,40.18
2022-11-27T19:17:13.967Z,39.99
2022-11-27T19:22:21.148Z,39.87
2022-11-27T19:27:26.507Z,39.99
2022-11-27T19:32:31.803Z,39.65
2022-11-27T19:37:38.284Z,39.29
2022-11-27T19:42:43.836Z,39.54
2022-11-27T19:47:49.314Z,39.72
2022-11-27T19:52:56.688Z,40.14
2022-11-27T19:58:02.428Z,40.15
2022-11-27T20:03:08.198Z,40.46
2022-11-27T20:08:13.692Z,40.13
2022-11-27T20:13:19.233Z,39.75
2022-11-27T20:18:24.705Z,40.10
2022-11-27T20:23:31.540Z,39.86
2022-11-27T20:28:38.273Z,39.95
2022-11-27T20:33:43.964Z,40.48
2022-11-27T20:38:49.663Z,40.16
2022-11-27T20:44:01.178Z,40.66
2022-11-27T20:49:07.320Z,41.41
2022-11-27T20:54:14.056Z,41.32
2022-11-27T20:59:20.404Z,41.27
2022-11-27T21:04:28.440Z,41.60
2022-11-27T21:09:33.936Z,41.38
2022-11-27T21:14:40.865Z,40.71
2022-11-27T21:19:46.717Z,41.19
2022-11-27T21:24:53.107Z,41.04
2022-11-27T21:29:58.786Z,40.83
2022-11-27T21:35:05.211Z,41.09
2022-11-27T21:40:11.395Z,41.16
2022-11-27T21:45:16.667Z,41.31
2022-11-27T21:50:22.161Z,41.34
2022-11-27T21:55:30.858Z,41.82
2022-11-27T22:00:36.891Z,41.50
2022-11-27T22:05:42.192Z,41.16
2022-11-27T22:10:47.675Z,40.51
2022-11-27T22:15:53.460Z,40.28
2022-11-27T22:20:59.963Z,40.69
2022-11-27T22:26:07.257Z,41.69
2022-11-27T22:31:16.094Z,41.12
2022-11-27T22:36:35.581Z,40.43
2022-11-27T22:41:42.074Z,42.01
2022-11-27T22:46:47.802Z,41.51
2022-11-27T22:51:54.218Z,41.84
2022-11-27T22:56:59.880Z,42.43
2022-11-27T23:02:07.497Z,42.85
2022-11-27T23:07:13.130Z,43.14
2022-11-27T23:12:18.503Z,42.45
2022-11-27T23:17:23.841Z,42.52
2022-11-27T23:22:29.364Z,42.33
2022-11-27T23:27:34.679Z,42.51
2022-11-27T23:32:41.524Z,41.77
2022-11-27T23:37:47.127Z,41.86
2022-11-27T23:42:52.676Z,42.54
2022-11-27T23:47:58.045Z,42.60
2022-11-27T23:53:03.589Z,42.40
2022-11-27T23:58:08.874Z,42.29
